Terminal Aerodrome Forecast
Issued by NWS Melbourne, FL

Home | Current Version | Previous Version | Text Only | Print | Product List | Glossary On
Versions: 1 2 3 4 5 6 7 8 9 10 11 12
000
FTUS42 KMLB 052325
TAFDAB
TAF
KDAB 052325Z 0600/0624 18004KT P6SM BKN050 BKN120
     FM060800 19005KT P6SM FEW003 OVC008
     FM061500 21014G22KT P6SM SCT020 BKN040
     FM061800 23016G24KT P6SM VCSH SCT025 BKN050
     FM062200 25010KT P6SM BKN050=

USA.gov is the U.S. government's official web portal to all federal, state and local government web resources and services.